createdAt,value
2022-10-29T00:01:18.175Z,28.20
2022-10-29T00:03:44.890Z,30.50
2022-10-29T00:06:12.210Z,30.00
2022-10-29T00:08:39.496Z,31.70
2022-10-29T00:11:07.250Z,28.90
2022-10-29T00:13:34.363Z,27.60
2022-10-29T00:16:05.637Z,24.00
2022-10-29T00:18:32.178Z,31.80
2022-10-29T00:21:07.799Z,32.10
2022-10-29T00:23:35.096Z,34.10
2022-10-29T00:26:03.272Z,32.60
2022-10-29T00:28:30.531Z,32.50
2022-10-29T00:30:57.170Z,30.90
2022-10-29T00:33:23.832Z,31.70
2022-10-29T00:35:57.550Z,30.60
2022-10-29T00:38:24.058Z,32.00
2022-10-29T00:40:50.839Z,27.10
2022-10-29T00:43:20.582Z,28.60
2022-10-29T00:45:58.994Z,26.40
2022-10-29T00:48:28.176Z,27.90
2022-10-29T00:50:56.525Z,27.30
2022-10-29T00:53:28.764Z,25.40
2022-10-29T00:55:55.336Z,26.90
2022-10-29T00:58:22.353Z,25.60
2022-10-29T01:00:48.863Z,25.60
2022-10-29T01:03:15.433Z,24.50
2022-10-29T01:05:44.180Z,26.90
2022-10-29T01:08:11.270Z,26.00
2022-10-29T01:10:49.186Z,26.40
2022-10-29T01:13:40.744Z,25.70
2022-10-29T01:16:16.299Z,24.50
2022-10-29T01:19:02.065Z,25.60
2022-10-29T01:21:41.789Z,23.30
2022-10-29T01:24:17.289Z,24.60
2022-10-29T01:26:49.566Z,24.50
2022-10-29T01:29:34.642Z,27.10
2022-10-29T01:32:11.235Z,23.50
2022-10-29T01:34:44.027Z,24.00
2022-10-29T01:37:22.832Z,23.80
2022-10-29T01:40:07.611Z,23.50
2022-10-29T01:42:45.596Z,22.60
2022-10-29T01:45:18.753Z,23.00
2022-10-29T01:47:51.302Z,24.40
2022-10-29T01:50:21.885Z,23.30
2022-10-29T01:52:50.230Z,23.00
2022-10-29T01:55:22.660Z,22.60
2022-10-29T01:57:49.232Z,22.30
2022-10-29T02:00:19.040Z,21.90
2022-10-29T02:03:04.470Z,22.50
2022-10-29T02:05:30.842Z,20.40
2022-10-29T02:08:01.083Z,21.70
2022-10-29T02:10:33.905Z,22.00
2022-10-29T02:13:00.511Z,22.80
2022-10-29T02:15:46.264Z,23.00
2022-10-29T02:18:12.709Z,23.10
2022-10-29T02:20:43.469Z,23.20
2022-10-29T02:23:10.418Z,22.90
2022-10-29T02:25:36.998Z,23.40
2022-10-29T02:28:04.115Z,24.10
2022-10-29T02:30:30.856Z,24.10
2022-10-29T02:32:57.879Z,23.60
2022-10-29T02:35:24.551Z,24.00
2022-10-29T02:37:51.192Z,24.00
2022-10-29T02:40:17.753Z,23.80
2022-10-29T02:42:44.274Z,25.10
2022-10-29T02:45:10.917Z,22.20
2022-10-29T02:47:37.328Z,24.30
2022-10-29T02:50:04.235Z,22.60
2022-10-29T02:52:30.684Z,24.60
2022-10-29T02:54:57.175Z,23.30
2022-10-29T02:57:23.714Z,23.50
2022-10-29T02:59:50.259Z,21.90
2022-10-29T03:02:16.846Z,22.50
2022-10-29T03:04:43.491Z,20.80
2022-10-29T03:07:10.484Z,22.50
2022-10-29T03:09:36.986Z,20.80
2022-10-29T03:12:03.566Z,20.20
2022-10-29T03:14:30.102Z,18.40
2022-10-29T03:16:56.848Z,21.20
2022-10-29T03:19:23.294Z,20.70
2022-10-29T03:21:49.830Z,20.20
2022-10-29T03:24:16.367Z,20.80
2022-10-29T03:26:42.907Z,21.00
2022-10-29T03:29:09.547Z,20.40
2022-10-29T03:31:36.092Z,19.10
2022-10-29T03:34:02.527Z,20.10
2022-10-29T03:36:29.072Z,19.40
2022-10-29T03:38:55.607Z,19.30
2022-10-29T03:41:22.046Z,18.60
2022-10-29T03:43:48.560Z,19.70
2022-10-29T03:46:15.121Z,18.90
2022-10-29T03:48:41.569Z,19.40
2022-10-29T03:51:08.146Z,20.10
2022-10-29T03:53:36.680Z,19.10
2022-10-29T03:56:04.047Z,20.20
2022-10-29T03:58:30.579Z,19.70
2022-10-29T04:01:01.209Z,19.10
2022-10-29T04:03:30.107Z,19.50
2022-10-29T04:05:57.213Z,19.80
2022-10-29T04:08:23.810Z,20.00
2022-10-29T04:10:51.022Z,20.20
2022-10-29T04:13:17.962Z,19.20
2022-10-29T04:15:45.212Z,19.30
2022-10-29T04:18:12.529Z,19.40
2022-10-29T04:21:31.309Z,20.80
2022-10-29T04:29:01.150Z,19.60
2022-10-29T04:31:27.693Z,19.50
2022-10-29T04:33:54.389Z,18.50
2022-10-29T04:36:20.975Z,19.00
2022-10-29T04:38:47.613Z,17.80
2022-10-29T04:41:14.183Z,19.00
2022-10-29T04:43:40.688Z,16.20
2022-10-29T04:46:07.228Z,18.20
2022-10-29T04:48:33.802Z,18.60
2022-10-29T04:51:00.267Z,16.30
2022-10-29T04:53:26.904Z,17.60
2022-10-29T04:55:59.542Z,17.70
2022-10-29T04:58:26.073Z,17.60
2022-10-29T05:00:52.642Z,16.60
2022-10-29T05:03:19.346Z,17.30
2022-10-29T05:05:45.786Z,17.60
2022-10-29T05:08:12.325Z,17.20
2022-10-29T05:10:40.010Z,17.40
2022-10-29T05:13:10.805Z,18.40
2022-10-29T05:15:38.289Z,14.20
2022-10-29T05:18:06.083Z,18.20
2022-10-29T05:20:33.337Z,18.20
2022-10-29T05:23:08.669Z,18.50
2022-10-29T05:25:37.035Z,19.60
2022-10-29T05:28:06.146Z,20.00
2022-10-29T05:30:34.412Z,22.20
2022-10-29T05:33:01.169Z,22.00
2022-10-29T05:35:27.949Z,21.10
2022-10-29T05:37:55.822Z,20.50
2022-10-29T05:40:24.162Z,22.20
2022-10-29T05:42:50.999Z,20.90
2022-10-29T05:45:18.256Z,23.60
2022-10-29T05:47:45.520Z,24.60
2022-10-29T05:50:12.979Z,25.10
2022-10-29T05:52:39.822Z,29.60
2022-10-29T05:55:07.203Z,30.40
2022-10-29T05:57:33.715Z,31.50
2022-10-29T06:00:02.130Z,34.00
2022-10-29T06:02:28.738Z,35.40
2022-10-29T06:04:55.277Z,31.70
2022-10-29T06:07:21.746Z,33.00
2022-10-29T06:09:48.158Z,48.30
2022-10-29T06:12:14.571Z,34.20
2022-10-29T06:14:41.119Z,39.10
2022-10-29T06:17:07.558Z,27.90
2022-10-29T06:19:34.131Z,23.90
2022-10-29T06:22:00.810Z,21.50
2022-10-29T06:24:28.319Z,21.10
2022-10-29T06:26:55.092Z,19.70
2022-10-29T06:29:21.584Z,18.70
2022-10-29T06:31:48.121Z,18.40
2022-10-29T06:34:14.574Z,18.10
2022-10-29T06:36:41.098Z,18.50
2022-10-29T06:39:07.844Z,17.90
2022-10-29T06:41:34.385Z,17.40
2022-10-29T06:44:00.926Z,16.50
2022-10-29T06:46:27.345Z,15.60
2022-10-29T06:48:53.924Z,13.60
2022-10-29T06:51:20.656Z,13.30
2022-10-29T06:53:47.068Z,11.60
2022-10-29T06:56:13.525Z,11.50
2022-10-29T06:58:40.166Z,11.50
2022-10-29T07:01:06.707Z,9.40
2022-10-29T07:03:33.246Z,10.10
2022-10-29T07:06:00.206Z,11.80
2022-10-29T07:08:27.045Z,12.20
2022-10-29T07:10:54.515Z,10.90
2022-10-29T07:13:21.044Z,10.20
2022-10-29T07:15:47.686Z,10.00
2022-10-29T07:18:14.240Z,10.70
2022-10-29T07:20:42.982Z,9.90
2022-10-29T07:23:10.680Z,9.80
2022-10-29T07:25:38.761Z,7.90
2022-10-29T07:28:08.180Z,8.50
2022-10-29T07:30:34.807Z,7.90
2022-10-29T07:33:01.251Z,7.70
2022-10-29T07:35:27.791Z,7.40
2022-10-29T07:38:05.400Z,7.50
2022-10-29T07:40:35.927Z,7.70
2022-10-29T07:43:02.471Z,8.90
2022-10-29T07:45:29.089Z,7.20
2022-10-29T07:48:03.695Z,6.80
2022-10-29T07:50:31.501Z,6.60
2022-10-29T07:53:02.544Z,6.90
2022-10-29T07:58:03.109Z,6.30
2022-10-29T08:00:34.667Z,5.80
2022-10-29T08:03:01.604Z,6.30
2022-10-29T08:05:30.007Z,5.00
2022-10-29T08:07:57.853Z,5.10
2022-10-29T08:10:25.719Z,5.70
2022-10-29T08:12:54.474Z,5.10
2022-10-29T08:15:22.077Z,5.20
2022-10-29T08:17:50.478Z,5.00
2022-10-29T08:20:17.616Z,4.60
2022-10-29T08:22:44.378Z,4.00
2022-10-29T08:25:12.433Z,3.50
2022-10-29T08:27:39.248Z,3.70
2022-10-29T08:30:08.045Z,4.10
2022-10-29T08:32:34.616Z,4.00
2022-10-29T08:35:01.882Z,3.80
2022-10-29T08:37:29.948Z,3.70
2022-10-29T08:39:56.487Z,4.30
2022-10-29T08:42:32.358Z,4.90
2022-10-29T08:45:23.675Z,5.10
2022-10-29T08:48:11.822Z,5.10
2022-10-29T08:50:43.504Z,4.60
2022-10-29T08:53:27.666Z,5.10
2022-10-29T08:55:58.604Z,5.50
2022-10-29T08:58:37.441Z,5.60
2022-10-29T09:01:10.782Z,5.40
2022-10-29T09:03:37.768Z,6.10
2022-10-29T09:06:09.023Z,6.50
2022-10-29T09:09:09.010Z,6.50
2022-10-29T09:11:44.828Z,6.90
2022-10-29T09:14:20.666Z,6.00
2022-10-29T09:17:26.157Z,6.10
2022-10-29T09:20:19.397Z,6.00
2022-10-29T09:22:54.135Z,5.60
2022-10-29T09:26:03.467Z,5.60
2022-10-29T09:28:43.188Z,5.80
2022-10-29T09:31:28.189Z,5.30
2022-10-29T09:34:02.728Z,6.60
2022-10-29T09:36:30.889Z,5.70
2022-10-29T09:39:00.519Z,5.70
2022-10-29T09:41:32.705Z,6.00
2022-10-29T09:44:00.451Z,6.50
2022-10-29T09:46:47.646Z,5.80
2022-10-29T09:49:28.558Z,5.60
2022-10-29T09:51:55.094Z,6.10
2022-10-29T09:54:25.040Z,6.10
2022-10-29T09:56:53.285Z,5.60
2022-10-29T09:59:46.358Z,5.10
2022-10-29T10:02:18.975Z,5.20
2022-10-29T10:04:49.317Z,4.80
2022-10-29T10:07:18.873Z,5.00
2022-10-29T10:10:04.055Z,4.40
2022-10-29T10:12:36.538Z,4.10
2022-10-29T10:15:18.216Z,3.90
2022-10-29T10:18:00.541Z,4.50
2022-10-29T10:20:35.324Z,4.50
2022-10-29T10:23:03.451Z,3.50
2022-10-29T10:25:40.311Z,3.00
2022-10-29T10:28:23.570Z,3.30
2022-10-29T10:31:11.959Z,4.30
2022-10-29T10:33:50.061Z,3.60
2022-10-29T10:36:18.419Z,2.60
2022-10-29T10:38:51.159Z,3.50
2022-10-29T10:41:24.984Z,3.10
2022-10-29T10:43:51.888Z,2.90
2022-10-29T10:46:27.122Z,3.30
2022-10-29T10:49:06.565Z,3.60
2022-10-29T10:51:36.173Z,3.20
2022-10-29T10:54:21.455Z,3.70
2022-10-29T10:57:13.061Z,3.40
2022-10-29T11:00:03.274Z,3.70
2022-10-29T11:02:29.897Z,3.90
2022-10-29T11:05:05.327Z,3.70
2022-10-29T11:07:37.640Z,5.10
2022-10-29T11:10:07.650Z,4.80
2022-10-29T11:12:43.079Z,5.10
2022-10-29T11:15:19.885Z,4.80
2022-10-29T11:17:54.423Z,4.70
2022-10-29T11:20:27.004Z,4.40
2022-10-29T11:23:25.892Z,4.20
2022-10-29T11:26:11.789Z,4.70
2022-10-29T11:28:51.560Z,4.20
2022-10-29T11:31:22.267Z,4.60
2022-10-29T11:36:24.258Z,6.00
2022-10-29T11:39:02.263Z,5.80
2022-10-29T11:41:52.051Z,5.30
2022-10-29T11:44:19.110Z,5.00
2022-10-29T11:47:04.180Z,4.60
2022-10-29T11:49:33.688Z,3.30
2022-10-29T11:52:09.240Z,3.80
2022-10-29T11:55:08.138Z,3.90
2022-10-29T11:57:47.710Z,4.20
2022-10-29T12:00:19.137Z,5.40
2022-10-29T12:03:17.749Z,5.20
2022-10-29T12:05:50.935Z,4.80
2022-10-29T12:08:29.660Z,4.30
2022-10-29T12:11:17.805Z,4.10
2022-10-29T12:13:56.022Z,4.60
2022-10-29T12:16:25.197Z,5.10
2022-10-29T12:19:06.375Z,4.70
2022-10-29T12:22:02.136Z,5.60
2022-10-29T12:25:13.018Z,4.60
2022-10-29T12:27:54.612Z,4.90
2022-10-29T12:30:24.168Z,5.20
2022-10-29T12:33:24.096Z,4.90
2022-10-29T12:38:42.478Z,4.70
2022-10-29T12:41:25.982Z,4.90
2022-10-29T12:44:03.630Z,5.10
2022-10-29T12:46:43.626Z,4.50
2022-10-29T12:49:22.455Z,5.00
2022-10-29T12:54:49.742Z,4.50
2022-10-29T12:57:16.170Z,5.00
2022-10-29T12:59:43.753Z,8.40
2022-10-29T13:02:28.741Z,8.80
2022-10-29T13:05:07.649Z,7.10
2022-10-29T13:07:35.007Z,5.60
2022-10-29T13:10:23.469Z,5.10
2022-10-29T13:12:59.126Z,4.90
2022-10-29T13:15:39.583Z,4.50
2022-10-29T13:18:18.068Z,3.80
2022-10-29T13:20:53.045Z,3.80
2022-10-29T13:23:23.476Z,3.70
2022-10-29T13:25:57.802Z,4.50
2022-10-29T13:28:24.343Z,4.60
2022-10-29T13:31:13.825Z,4.40
2022-10-29T13:33:40.274Z,4.30
2022-10-29T13:36:16.120Z,3.80
2022-10-29T13:39:05.776Z,4.00
2022-10-29T13:41:38.304Z,4.50
2022-10-29T13:44:07.798Z,3.20
2022-10-29T13:47:20.325Z,3.10
2022-10-29T13:49:48.870Z,3.30
2022-10-29T13:52:17.804Z,3.10
2022-10-29T13:55:07.704Z,3.70
2022-10-29T13:57:46.471Z,4.00
2022-10-29T14:00:12.889Z,4.10
2022-10-29T14:02:42.495Z,5.00
2022-10-29T14:05:11.981Z,5.60
2022-10-29T14:08:14.277Z,5.00
2022-10-29T14:10:40.728Z,5.20
2022-10-29T14:13:23.535Z,4.00
2022-10-29T14:16:09.216Z,4.30
2022-10-29T14:18:39.068Z,4.20
2022-10-29T14:21:12.905Z,4.30
2022-10-29T14:23:40.214Z,4.60
2022-10-29T14:26:15.791Z,4.20
2022-10-29T14:28:42.813Z,4.60
2022-10-29T14:31:15.600Z,4.20
2022-10-29T14:33:45.078Z,5.10
2022-10-29T14:36:20.397Z,4.60
2022-10-29T14:38:57.646Z,9.90
2022-10-29T14:41:26.144Z,12.80
2022-10-29T14:44:27.492Z,12.90
2022-10-29T14:47:08.572Z,13.50
2022-10-29T14:49:40.664Z,12.90
2022-10-29T14:52:37.062Z,14.00
2022-10-29T14:55:08.220Z,15.60
2022-10-29T14:57:41.435Z,16.60
2022-10-29T15:00:21.695Z,16.80
2022-10-29T15:02:48.548Z,18.60
2022-10-29T15:05:33.377Z,16.70
2022-10-29T15:08:09.159Z,14.70
2022-10-29T15:10:53.969Z,14.80
2022-10-29T15:13:29.791Z,15.70
2022-10-29T15:16:09.462Z,15.30
2022-10-29T15:18:37.925Z,16.90
2022-10-29T15:21:05.619Z,18.50
2022-10-29T15:23:45.462Z,18.20
2022-10-29T15:26:17.516Z,19.30
2022-10-29T15:28:46.265Z,19.90
2022-10-29T15:31:33.276Z,21.00
2022-10-29T15:34:14.718Z,21.80
2022-10-29T15:36:52.054Z,22.30
2022-10-29T15:39:22.474Z,23.10
2022-10-29T15:41:50.751Z,21.90
2022-10-29T15:44:31.513Z,21.60
2022-10-29T15:47:00.504Z,21.60
2022-10-29T15:49:31.447Z,20.50
2022-10-29T15:52:00.342Z,23.90
2022-10-29T15:54:27.831Z,19.80
2022-10-29T15:56:54.546Z,20.10
2022-10-29T15:59:24.876Z,18.80
2022-10-29T16:01:51.413Z,21.40
2022-10-29T16:04:18.191Z,22.60
2022-10-29T16:06:44.700Z,24.10
2022-10-29T16:09:17.917Z,24.90
2022-10-29T16:11:44.559Z,24.20
2022-10-29T16:14:11.076Z,26.30
2022-10-29T16:16:37.950Z,27.00
2022-10-29T16:19:04.513Z,27.70
2022-10-29T16:21:31.208Z,60.10
2022-10-29T16:23:57.684Z,34.10
2022-10-29T16:26:25.932Z,30.30
2022-10-29T16:28:52.894Z,28.90
2022-10-29T16:31:20.588Z,27.90
2022-10-29T16:33:52.872Z,30.50
2022-10-29T16:36:19.823Z,26.50
2022-10-29T16:38:46.315Z,27.70
2022-10-29T16:41:16.993Z,30.20
2022-10-29T16:43:44.226Z,30.00
2022-10-29T16:46:12.071Z,32.50
2022-10-29T16:48:39.568Z,32.70
2022-10-29T16:51:06.796Z,34.90
2022-10-29T16:53:34.165Z,34.40
2022-10-29T16:56:01.102Z,35.20
2022-10-29T16:58:27.650Z,36.90
2022-10-29T17:01:08.149Z,34.90
2022-10-29T17:03:34.857Z,52.70
2022-10-29T17:06:10.159Z,60.20
2022-10-29T17:08:38.104Z,57.70
2022-10-29T17:11:06.992Z,81.10
2022-10-29T17:13:34.538Z,71.80
2022-10-29T17:16:01.177Z,103.30
2022-10-29T17:18:27.612Z,74.80
2022-10-29T17:20:55.947Z,96.70
2022-10-29T17:23:22.434Z,76.30
2022-10-29T17:25:54.823Z,64.70
2022-10-29T17:28:22.687Z,77.80
2022-10-29T17:30:49.181Z,85.30
2022-10-29T17:33:16.159Z,75.00
2022-10-29T17:35:43.805Z,53.20
2022-10-29T17:38:11.279Z,59.00
2022-10-29T17:40:38.353Z,50.80
2022-10-29T17:43:04.869Z,43.20
2022-10-29T17:45:31.329Z,42.60
2022-10-29T17:47:59.273Z,41.70
2022-10-29T17:50:26.767Z,41.10
2022-10-29T17:52:54.439Z,36.80
2022-10-29T17:55:21.291Z,121.10
2022-10-29T17:57:47.819Z,76.40
2022-10-29T18:00:15.192Z,48.20
2022-10-29T18:02:42.187Z,47.10
2022-10-29T18:05:09.486Z,55.80
2022-10-29T18:07:36.026Z,49.30
2022-10-29T18:10:03.262Z,42.50
2022-10-29T18:12:29.730Z,43.80
2022-10-29T18:14:56.262Z,39.50
2022-10-29T18:17:22.942Z,47.40
2022-10-29T18:19:49.553Z,50.80
2022-10-29T18:22:16.297Z,40.00
2022-10-29T18:24:42.843Z,38.50
2022-10-29T18:27:09.449Z,51.20
2022-10-29T18:29:35.969Z,46.20
2022-10-29T18:32:02.407Z,46.70
2022-10-29T18:34:29.613Z,41.30
2022-10-29T18:36:56.147Z,43.00
2022-10-29T18:39:22.598Z,54.40
2022-10-29T18:41:49.131Z,55.60
2022-10-29T18:44:15.673Z,65.10
2022-10-29T18:46:42.152Z,74.10
2022-10-29T18:49:10.695Z,69.70
2022-10-29T18:51:37.166Z,72.60
2022-10-29T18:54:03.981Z,55.20
2022-10-29T18:56:30.590Z,57.60
2022-10-29T18:58:58.388Z,58.80
2022-10-29T19:01:28.187Z,60.10
2022-10-29T19:03:57.143Z,48.40
2022-10-29T19:06:26.610Z,54.60
2022-10-29T19:08:53.964Z,53.30
2022-10-29T19:11:23.464Z,56.70
2022-10-29T19:13:54.730Z,71.10
2022-10-29T19:18:48.728Z,86.80
2022-10-29T19:21:18.074Z,80.40
2022-10-29T19:23:45.700Z,84.40
2022-10-29T19:26:15.074Z,79.30
2022-10-29T19:28:42.871Z,64.60
2022-10-29T19:31:21.495Z,56.40
2022-10-29T19:33:53.410Z,45.90
2022-10-29T19:36:21.539Z,46.10
2022-10-29T19:38:48.686Z,41.80
2022-10-29T19:41:16.213Z,39.00
2022-10-29T19:43:43.546Z,37.00
2022-10-29T19:46:12.507Z,38.70
2022-10-29T19:48:40.073Z,35.80
2022-10-29T19:51:08.043Z,36.10
2022-10-29T19:53:37.101Z,33.30
2022-10-29T19:56:03.682Z,33.20
2022-10-29T19:58:30.174Z,35.00
2022-10-29T20:01:04.510Z,34.80
2022-10-29T20:03:31.092Z,36.80
2022-10-29T20:05:57.628Z,36.30
2022-10-29T20:08:24.168Z,40.80
2022-10-29T20:11:00.274Z,43.20
2022-10-29T20:13:27.087Z,57.70
2022-10-29T20:15:54.281Z,65.40
2022-10-29T20:18:20.938Z,73.90
2022-10-29T20:20:53.835Z,76.50
2022-10-29T20:23:20.417Z,80.10
2022-10-29T20:25:46.945Z,67.80
2022-10-29T20:28:13.491Z,70.80
2022-10-29T20:30:40.025Z,68.10
2022-10-29T20:33:06.466Z,71.80
2022-10-29T20:35:35.076Z,75.00
2022-10-29T20:38:01.858Z,71.80
2022-10-29T20:40:28.642Z,70.80
2022-10-29T20:42:55.139Z,73.20
2022-10-29T20:45:21.721Z,71.30
2022-10-29T20:47:48.196Z,67.90
2022-10-29T20:50:14.804Z,63.00
2022-10-29T20:52:45.674Z,60.30
2022-10-29T20:55:14.946Z,61.50
2022-10-29T20:57:41.389Z,60.40
2022-10-29T21:00:08.846Z,60.80
2022-10-29T21:02:35.321Z,61.60
2022-10-29T21:05:02.031Z,59.60
2022-10-29T21:07:28.550Z,59.00
2022-10-29T21:09:55.015Z,58.30
2022-10-29T21:12:21.604Z,59.30
2022-10-29T21:14:48.028Z,55.20
2022-10-29T21:17:14.817Z,55.50
2022-10-29T21:19:41.319Z,56.30
2022-10-29T21:22:07.812Z,52.40
2022-10-29T21:24:35.575Z,51.80
2022-10-29T21:27:02.538Z,52.00
2022-10-29T21:29:28.988Z,53.10
2022-10-29T21:31:55.508Z,49.60
2022-10-29T21:34:22.769Z,50.40
2022-10-29T21:36:49.206Z,49.20
2022-10-29T21:39:15.756Z,46.30
2022-10-29T21:41:42.288Z,47.50
2022-10-29T21:44:08.935Z,47.20
2022-10-29T21:46:35.355Z,49.80
2022-10-29T21:49:02.113Z,45.00
2022-10-29T21:51:28.651Z,46.90
2022-10-29T21:53:55.191Z,45.00
2022-10-29T21:56:21.735Z,46.00
2022-10-29T21:58:50.491Z,46.00
2022-10-29T22:01:17.470Z,44.60
2022-10-29T22:03:45.612Z,46.50
2022-10-29T22:06:23.468Z,48.20
2022-10-29T22:08:58.025Z,51.40
2022-10-29T22:11:25.971Z,54.40
2022-10-29T22:13:53.840Z,62.30
2022-10-29T22:16:21.199Z,48.50
2022-10-29T22:18:47.660Z,45.90
2022-10-29T22:21:16.898Z,41.10
2022-10-29T22:23:45.020Z,40.80
2022-10-29T22:26:13.303Z,38.10
2022-10-29T22:28:39.841Z,38.80
2022-10-29T22:31:07.302Z,41.50
2022-10-29T22:33:35.072Z,42.00
2022-10-29T22:36:06.016Z,38.90
2022-10-29T22:38:32.968Z,38.30
2022-10-29T22:41:17.117Z,40.20
2022-10-29T22:43:44.606Z,37.90
2022-10-29T22:46:13.372Z,36.80
2022-10-29T22:48:40.447Z,37.30
2022-10-29T22:51:13.923Z,37.70
2022-10-29T22:53:40.879Z,40.90
2022-10-29T22:56:10.510Z,38.10
2022-10-29T22:58:37.028Z,37.30
2022-10-29T23:01:06.640Z,37.10
2022-10-29T23:03:34.249Z,37.50
2022-10-29T23:06:03.576Z,35.40
2022-10-29T23:08:30.865Z,34.30
2022-10-29T23:10:57.813Z,34.30
2022-10-29T23:13:24.575Z,35.50
2022-10-29T23:15:53.256Z,34.90
2022-10-29T23:18:19.999Z,36.20
2022-10-29T23:20:46.637Z,35.70
2022-10-29T23:23:13.911Z,35.80
2022-10-29T23:25:41.629Z,35.10
2022-10-29T23:28:09.339Z,30.70
2022-10-29T23:30:36.184Z,31.70
2022-10-29T23:33:02.631Z,31.10
2022-10-29T23:35:29.158Z,31.70
2022-10-29T23:37:55.777Z,29.70
2022-10-29T23:40:22.652Z,32.20
2022-10-29T23:42:49.196Z,30.30
2022-10-29T23:45:15.731Z,29.40
2022-10-29T23:47:42.273Z,29.00
2022-10-29T23:50:09.459Z,29.20
2022-10-29T23:52:35.880Z,30.30
2022-10-29T23:55:02.410Z,31.40
2022-10-29T23:57:28.853Z,30.60
2022-10-29T23:59:55.280Z,29.60
